Port Hedland Bedout Island, Australia
Current Conditions -  °F | °C
As of 6:30 AM on Sunday 21 Dec 2014 (Local Time) from YPPD Reporting Station
Clear Clear  
Wind Chill: 81°   Ceiling: Unl
Heat Index: 85°   Visibility: 6mi
Dew Point: 72°   Wind: 3mph
Humidity: 74%   Direction: 310°NW
Pressure: 29.77"   Gusts: NA
Location:  19.58°S, 119.1°E
Report Text: YPPD 202230Z 31003KT CAVOK 27/22 Q1008
Loading
Personal Weather Stations






























Interactive Weather Map New forecast layout! Learn more

10-Day Weather Forecast

Advertisements
Track Severe Weather on mobile